sensor_id;sensor_type;location;lat;lon;timestamp;temperature;humidity
12477;DHT22;6303;51.504;6.300;2023-08-20T00:01:10;28.70;93.80
12477;DHT22;6303;51.504;6.300;2023-08-20T00:03:40;28.70;93.70
12477;DHT22;6303;51.504;6.300;2023-08-20T00:06:07;28.70;93.70
12477;DHT22;6303;51.504;6.300;2023-08-20T00:08:34;28.70;93.70
12477;DHT22;6303;51.504;6.300;2023-08-20T00:11:03;28.70;93.60
12477;DHT22;6303;51.504;6.300;2023-08-20T00:13:31;28.70;93.50
12477;DHT22;6303;51.504;6.300;2023-08-20T00:15:59;28.70;93.50
12477;DHT22;6303;51.504;6.300;2023-08-20T00:18:26;28.70;93.50
12477;DHT22;6303;51.504;6.300;2023-08-20T00:20:54;28.70;93.40
12477;DHT22;6303;51.504;6.300;2023-08-20T00:23:21;28.70;93.40
12477;DHT22;6303;51.504;6.300;2023-08-20T00:25:49;28.70;93.30
12477;DHT22;6303;51.504;6.300;2023-08-20T00:28:19;28.70;93.20
12477;DHT22;6303;51.504;6.300;2023-08-20T00:30:46;28.70;93.30
12477;DHT22;6303;51.504;6.300;2023-08-20T00:33:15;28.60;93.20
12477;DHT22;6303;51.504;6.300;2023-08-20T00:35:42;28.70;93.20
12477;DHT22;6303;51.504;6.300;2023-08-20T00:38:09;28.70;93.10
12477;DHT22;6303;51.504;6.300;2023-08-20T00:40:36;28.60;93.00
12477;DHT22;6303;51.504;6.300;2023-08-20T00:43:03;28.60;93.00
12477;DHT22;6303;51.504;6.300;2023-08-20T00:45:32;28.60;92.90
12477;DHT22;6303;51.504;6.300;2023-08-20T00:47:59;28.60;92.90
12477;DHT22;6303;51.504;6.300;2023-08-20T00:50:27;28.60;92.70
12477;DHT22;6303;51.504;6.300;2023-08-20T00:52:55;28.60;92.60
12477;DHT22;6303;51.504;6.300;2023-08-20T00:55:22;28.60;92.40
12477;DHT22;6303;51.504;6.300;2023-08-20T00:57:49;28.60;92.40
12477;DHT22;6303;51.504;6.300;2023-08-20T01:00:17;28.60;92.30
12477;DHT22;6303;51.504;6.300;2023-08-20T01:02:46;28.60;92.20
12477;DHT22;6303;51.504;6.300;2023-08-20T01:05:13;28.60;92.20
12477;DHT22;6303;51.504;6.300;2023-08-20T01:07:48;28.60;92.10
12477;DHT22;6303;51.504;6.300;2023-08-20T01:10:21;28.60;92.10
12477;DHT22;6303;51.504;6.300;2023-08-20T01:12:51;28.60;92.00
12477;DHT22;6303;51.504;6.300;2023-08-20T01:15:19;28.60;92.00
12477;DHT22;6303;51.504;6.300;2023-08-20T01:17:48;28.60;92.00
12477;DHT22;6303;51.504;6.300;2023-08-20T01:20:16;28.60;92.00
12477;DHT22;6303;51.504;6.300;2023-08-20T01:23:16;28.60;92.10
12477;DHT22;6303;51.504;6.300;2023-08-20T01:25:59;28.60;92.10
12477;DHT22;6303;51.504;6.300;2023-08-20T01:28:31;28.60;92.10
12477;DHT22;6303;51.504;6.300;2023-08-20T01:31:00;28.60;91.90
12477;DHT22;6303;51.504;6.300;2023-08-20T01:33:28;28.60;91.30
12477;DHT22;6303;51.504;6.300;2023-08-20T01:35:58;28.60;90.90
12477;DHT22;6303;51.504;6.300;2023-08-20T01:38:25;28.60;90.80
12477;DHT22;6303;51.504;6.300;2023-08-20T01:40:52;28.50;90.80
12477;DHT22;6303;51.504;6.300;2023-08-20T01:43:20;28.60;90.80
12477;DHT22;6303;51.504;6.300;2023-08-20T01:45:48;28.60;90.90
12477;DHT22;6303;51.504;6.300;2023-08-20T01:48:15;28.50;90.90
12477;DHT22;6303;51.504;6.300;2023-08-20T01:50:43;28.50;90.90
12477;DHT22;6303;51.504;6.300;2023-08-20T01:53:11;28.50;90.90
12477;DHT22;6303;51.504;6.300;2023-08-20T01:55:38;28.60;90.90
12477;DHT22;6303;51.504;6.300;2023-08-20T01:58:05;28.50;90.80
12477;DHT22;6303;51.504;6.300;2023-08-20T02:00:32;28.50;90.60
12477;DHT22;6303;51.504;6.300;2023-08-20T02:03:02;28.50;90.40
12477;DHT22;6303;51.504;6.300;2023-08-20T02:05:29;28.50;90.10
12477;DHT22;6303;51.504;6.300;2023-08-20T02:07:57;28.50;89.80
12477;DHT22;6303;51.504;6.300;2023-08-20T02:10:24;28.50;89.70
12477;DHT22;6303;51.504;6.300;2023-08-20T02:12:51;28.50;89.70
12477;DHT22;6303;51.504;6.300;2023-08-20T02:15:18;28.50;89.80
12477;DHT22;6303;51.504;6.300;2023-08-20T02:17:45;28.50;89.70
12477;DHT22;6303;51.504;6.300;2023-08-20T02:20:14;28.50;89.80
12477;DHT22;6303;51.504;6.300;2023-08-20T02:22:41;28.50;89.90
12477;DHT22;6303;51.504;6.300;2023-08-20T02:25:08;28.40;89.80
12477;DHT22;6303;51.504;6.300;2023-08-20T02:27:35;28.50;89.90
12477;DHT22;6303;51.504;6.300;2023-08-20T02:30:03;28.40;89.90
12477;DHT22;6303;51.504;6.300;2023-08-20T02:32:30;28.40;89.90
12477;DHT22;6303;51.504;6.300;2023-08-20T02:34:59;28.40;89.90
12477;DHT22;6303;51.504;6.300;2023-08-20T02:37:27;28.40;89.80
12477;DHT22;6303;51.504;6.300;2023-08-20T02:39:55;28.40;89.70
12477;DHT22;6303;51.504;6.300;2023-08-20T02:42:22;28.50;89.50
12477;DHT22;6303;51.504;6.300;2023-08-20T02:44:50;28.40;89.10
12477;DHT22;6303;51.504;6.300;2023-08-20T02:47:17;28.50;89.10
12477;DHT22;6303;51.504;6.300;2023-08-20T02:49:44;28.40;89.00
12477;DHT22;6303;51.504;6.300;2023-08-20T02:52:11;28.40;89.10
12477;DHT22;6303;51.504;6.300;2023-08-20T02:54:40;28.40;89.00
12477;DHT22;6303;51.504;6.300;2023-08-20T02:57:07;28.50;89.10
12477;DHT22;6303;51.504;6.300;2023-08-20T02:59:34;28.40;89.00
12477;DHT22;6303;51.504;6.300;2023-08-20T03:02:01;28.50;89.20
12477;DHT22;6303;51.504;6.300;2023-08-20T03:04:29;28.40;89.20
12477;DHT22;6303;51.504;6.300;2023-08-20T03:06:56;28.40;89.20
12477;DHT22;6303;51.504;6.300;2023-08-20T03:09:24;28.40;89.20
12477;DHT22;6303;51.504;6.300;2023-08-20T03:11:52;28.50;89.30
12477;DHT22;6303;51.504;6.300;2023-08-20T03:14:20;28.40;89.20
12477;DHT22;6303;51.504;6.300;2023-08-20T03:16:47;28.40;89.10
12477;DHT22;6303;51.504;6.300;2023-08-20T03:19:15;28.50;89.00
12477;DHT22;6303;51.504;6.300;2023-08-20T03:21:42;28.50;88.90
12477;DHT22;6303;51.504;6.300;2023-08-20T03:24:09;28.40;88.90
12477;DHT22;6303;51.504;6.300;2023-08-20T03:26:36;28.50;88.90
12477;DHT22;6303;51.504;6.300;2023-08-20T03:29:05;28.40;88.80
12477;DHT22;6303;51.504;6.300;2023-08-20T03:31:32;28.40;88.90
12477;DHT22;6303;51.504;6.300;2023-08-20T03:33:59;28.60;89.20
12477;DHT22;6303;51.504;6.300;2023-08-20T03:36:26;28.40;89.10
12477;DHT22;6303;51.504;6.300;2023-08-20T03:38:55;28.40;89.10
12477;DHT22;6303;51.504;6.300;2023-08-20T03:41:22;28.50;89.20
12477;DHT22;6303;51.504;6.300;2023-08-20T03:43:49;28.40;89.00
12477;DHT22;6303;51.504;6.300;2023-08-20T03:46:18;28.40;89.00
12477;DHT22;6303;51.504;6.300;2023-08-20T03:48:45;28.40;89.10
12477;DHT22;6303;51.504;6.300;2023-08-20T03:51:12;28.40;88.90
12477;DHT22;6303;51.504;6.300;2023-08-20T03:53:41;28.40;88.80
12477;DHT22;6303;51.504;6.300;2023-08-20T03:56:08;28.40;88.70
12477;DHT22;6303;51.504;6.300;2023-08-20T03:58:35;28.40;88.60
12477;DHT22;6303;51.504;6.300;2023-08-20T04:01:02;28.40;88.80
12477;DHT22;6303;51.504;6.300;2023-08-20T04:03:32;28.40;88.80
12477;DHT22;6303;51.504;6.300;2023-08-20T04:05:59;28.40;88.80
12477;DHT22;6303;51.504;6.300;2023-08-20T04:08:26;28.40;88.80
12477;DHT22;6303;51.504;6.300;2023-08-20T04:10:53;28.40;88.60
12477;DHT22;6303;51.504;6.300;2023-08-20T04:13:20;28.40;88.70
12477;DHT22;6303;51.504;6.300;2023-08-20T04:15:47;28.40;88.80
12477;DHT22;6303;51.504;6.300;2023-08-20T04:18:14;28.40;88.80
12477;DHT22;6303;51.504;6.300;2023-08-20T04:20:43;28.40;89.00
12477;DHT22;6303;51.504;6.300;2023-08-20T04:23:10;28.40;89.00
12477;DHT22;6303;51.504;6.300;2023-08-20T04:25:37;28.40;88.90
12477;DHT22;6303;51.504;6.300;2023-08-20T04:28:04;28.40;88.80
12477;DHT22;6303;51.504;6.300;2023-08-20T04:30:31;28.30;88.60
12477;DHT22;6303;51.504;6.300;2023-08-20T04:32:58;28.30;88.40
12477;DHT22;6303;51.504;6.300;2023-08-20T04:35:27;28.40;88.20
12477;DHT22;6303;51.504;6.300;2023-08-20T04:37:55;28.40;88.20
12477;DHT22;6303;51.504;6.300;2023-08-20T04:40:27;28.30;88.00
12477;DHT22;6303;51.504;6.300;2023-08-20T04:42:54;28.30;88.00
12477;DHT22;6303;51.504;6.300;2023-08-20T04:45:22;28.30;87.90
12477;DHT22;6303;51.504;6.300;2023-08-20T04:47:49;28.30;87.70
12477;DHT22;6303;51.504;6.300;2023-08-20T04:50:16;28.30;87.60
12477;DHT22;6303;51.504;6.300;2023-08-20T04:52:44;28.30;87.60
12477;DHT22;6303;51.504;6.300;2023-08-20T04:55:14;28.30;87.70
12477;DHT22;6303;51.504;6.300;2023-08-20T04:57:42;28.30;87.50
12477;DHT22;6303;51.504;6.300;2023-08-20T05:00:11;28.30;87.40
12477;DHT22;6303;51.504;6.300;2023-08-20T05:02:45;28.30;87.30
12477;DHT22;6303;51.504;6.300;2023-08-20T05:05:15;28.30;87.20
12477;DHT22;6303;51.504;6.300;2023-08-20T05:07:43;28.30;87.10
12477;DHT22;6303;51.504;6.300;2023-08-20T05:10:10;28.30;86.90
12477;DHT22;6303;51.504;6.300;2023-08-20T05:12:38;28.40;86.80
12477;DHT22;6303;51.504;6.300;2023-08-20T05:15:06;28.40;86.60
12477;DHT22;6303;51.504;6.300;2023-08-20T05:17:33;28.30;86.30
12477;DHT22;6303;51.504;6.300;2023-08-20T05:20:01;28.40;86.10
12477;DHT22;6303;51.504;6.300;2023-08-20T05:22:29;28.40;86.00
12477;DHT22;6303;51.504;6.300;2023-08-20T05:24:56;28.40;85.90
12477;DHT22;6303;51.504;6.300;2023-08-20T05:27:23;28.40;85.90
12477;DHT22;6303;51.504;6.300;2023-08-20T05:29:52;28.50;85.70
12477;DHT22;6303;51.504;6.300;2023-08-20T05:32:20;28.50;85.70
12477;DHT22;6303;51.504;6.300;2023-08-20T05:34:47;28.50;85.60
12477;DHT22;6303;51.504;6.300;2023-08-20T05:37:14;28.50;85.40
12477;DHT22;6303;51.504;6.300;2023-08-20T05:39:43;28.60;85.30
12477;DHT22;6303;51.504;6.300;2023-08-20T05:42:11;28.60;85.20
12477;DHT22;6303;51.504;6.300;2023-08-20T05:44:42;28.60;85.00
12477;DHT22;6303;51.504;6.300;2023-08-20T05:47:14;28.60;84.90
12477;DHT22;6303;51.504;6.300;2023-08-20T05:49:41;28.60;84.50
12477;DHT22;6303;51.504;6.300;2023-08-20T05:52:08;28.70;84.30
12477;DHT22;6303;51.504;6.300;2023-08-20T05:54:36;28.70;84.00
12477;DHT22;6303;51.504;6.300;2023-08-20T05:57:04;28.70;83.90
12477;DHT22;6303;51.504;6.300;2023-08-20T05:59:31;28.80;83.70
12477;DHT22;6303;51.504;6.300;2023-08-20T06:02:01;28.80;83.50
12477;DHT22;6303;51.504;6.300;2023-08-20T06:04:30;28.80;83.40
12477;DHT22;6303;51.504;6.300;2023-08-20T06:06:57;28.80;83.20
12477;DHT22;6303;51.504;6.300;2023-08-20T06:09:24;28.90;83.20
12477;DHT22;6303;51.504;6.300;2023-08-20T06:11:51;28.90;82.90
12477;DHT22;6303;51.504;6.300;2023-08-20T06:14:18;29.20;83.10
12477;DHT22;6303;51.504;6.300;2023-08-20T06:16:45;28.90;82.80
12477;DHT22;6303;51.504;6.300;2023-08-20T06:19:12;29.00;82.80
12477;DHT22;6303;51.504;6.300;2023-08-20T06:21:41;29.00;82.60
12477;DHT22;6303;51.504;6.300;2023-08-20T06:24:08;29.00;82.50
12477;DHT22;6303;51.504;6.300;2023-08-20T06:26:35;29.00;82.40
12477;DHT22;6303;51.504;6.300;2023-08-20T06:29:02;29.10;82.40
12477;DHT22;6303;51.504;6.300;2023-08-20T06:31:30;29.10;82.10
12477;DHT22;6303;51.504;6.300;2023-08-20T06:33:57;29.10;82.00
12477;DHT22;6303;51.504;6.300;2023-08-20T06:36:24;29.20;82.00
12477;DHT22;6303;51.504;6.300;2023-08-20T06:38:52;29.20;81.80
12477;DHT22;6303;51.504;6.300;2023-08-20T06:41:19;29.20;81.70
12477;DHT22;6303;51.504;6.300;2023-08-20T06:43:46;29.30;81.70
12477;DHT22;6303;51.504;6.300;2023-08-20T06:46:13;29.30;81.50
12477;DHT22;6303;51.504;6.300;2023-08-20T06:48:40;29.30;81.30
12477;DHT22;6303;51.504;6.300;2023-08-20T06:51:10;29.30;81.10
12477;DHT22;6303;51.504;6.300;2023-08-20T06:53:37;29.40;81.10
12477;DHT22;6303;51.504;6.300;2023-08-20T06:56:07;29.40;81.00
12477;DHT22;6303;51.504;6.300;2023-08-20T06:58:35;29.50;80.80
12477;DHT22;6303;51.504;6.300;2023-08-20T07:01:02;29.50;80.70
12477;DHT22;6303;51.504;6.300;2023-08-20T07:03:34;29.50;80.50
12477;DHT22;6303;51.504;6.300;2023-08-20T07:06:01;29.60;80.50
12477;DHT22;6303;51.504;6.300;2023-08-20T07:08:28;29.60;80.40
12477;DHT22;6303;51.504;6.300;2023-08-20T07:10:55;29.60;80.30
12477;DHT22;6303;51.504;6.300;2023-08-20T07:13:24;29.60;80.10
12477;DHT22;6303;51.504;6.300;2023-08-20T07:15:51;29.60;80.00
12477;DHT22;6303;51.504;6.300;2023-08-20T07:18:18;29.70;80.00
12477;DHT22;6303;51.504;6.300;2023-08-20T07:20:45;29.70;79.80
12477;DHT22;6303;51.504;6.300;2023-08-20T07:23:13;29.70;79.70
12477;DHT22;6303;51.504;6.300;2023-08-20T07:25:41;29.70;79.60
12477;DHT22;6303;51.504;6.300;2023-08-20T07:28:08;29.80;79.60
12477;DHT22;6303;51.504;6.300;2023-08-20T07:30:37;29.80;79.40
12477;DHT22;6303;51.504;6.300;2023-08-20T07:33:05;29.80;79.20
12477;DHT22;6303;51.504;6.300;2023-08-20T07:35:33;29.90;79.20
12477;DHT22;6303;51.504;6.300;2023-08-20T07:38:01;29.90;79.10
12477;DHT22;6303;51.504;6.300;2023-08-20T07:40:28;29.90;78.90
12477;DHT22;6303;51.504;6.300;2023-08-20T07:42:55;30.00;78.70
12477;DHT22;6303;51.504;6.300;2023-08-20T07:45:23;30.00;78.40
12477;DHT22;6303;51.504;6.300;2023-08-20T07:47:51;30.10;78.30
12477;DHT22;6303;51.504;6.300;2023-08-20T07:50:18;30.10;78.10
12477;DHT22;6303;51.504;6.300;2023-08-20T07:52:45;30.20;77.90
12477;DHT22;6303;51.504;6.300;2023-08-20T07:55:12;30.20;77.70
12477;DHT22;6303;51.504;6.300;2023-08-20T07:57:39;30.20;77.50
12477;DHT22;6303;51.504;6.300;2023-08-20T08:00:07;30.30;77.30
12477;DHT22;6303;51.504;6.300;2023-08-20T08:02:37;30.30;77.00
12477;DHT22;6303;51.504;6.300;2023-08-20T08:05:06;30.30;76.80
12477;DHT22;6303;51.504;6.300;2023-08-20T08:07:34;30.40;76.70
12477;DHT22;6303;51.504;6.300;2023-08-20T08:10:01;30.40;76.50
12477;DHT22;6303;51.504;6.300;2023-08-20T08:12:29;30.50;76.40
12477;DHT22;6303;51.504;6.300;2023-08-20T08:14:56;30.50;76.10
12477;DHT22;6303;51.504;6.300;2023-08-20T08:17:23;30.50;75.60
12477;DHT22;6303;51.504;6.300;2023-08-20T08:19:50;30.60;75.30
12477;DHT22;6303;51.504;6.300;2023-08-20T08:22:21;30.60;75.00
12477;DHT22;6303;51.504;6.300;2023-08-20T08:24:48;30.60;74.60
12477;DHT22;6303;51.504;6.300;2023-08-20T08:27:15;30.70;74.40
12477;DHT22;6303;51.504;6.300;2023-08-20T08:29:42;30.80;74.20
12477;DHT22;6303;51.504;6.300;2023-08-20T08:32:10;30.80;74.10
12477;DHT22;6303;51.504;6.300;2023-08-20T08:34:37;30.80;73.80
12477;DHT22;6303;51.504;6.300;2023-08-20T08:37:04;30.80;74.40
12477;DHT22;6303;51.504;6.300;2023-08-20T08:39:32;30.90;73.70
12477;DHT22;6303;51.504;6.300;2023-08-20T08:42:01;30.90;73.50
12477;DHT22;6303;51.504;6.300;2023-08-20T08:44:31;31.00;73.30
12477;DHT22;6303;51.504;6.300;2023-08-20T08:46:58;31.00;73.20
12477;DHT22;6303;51.504;6.300;2023-08-20T08:49:26;31.00;72.90
12477;DHT22;6303;51.504;6.300;2023-08-20T08:51:56;31.10;72.90
12477;DHT22;6303;51.504;6.300;2023-08-20T08:54:24;31.10;72.70
12477;DHT22;6303;51.504;6.300;2023-08-20T08:56:53;31.10;72.50
12477;DHT22;6303;51.504;6.300;2023-08-20T08:59:20;31.10;72.30
12477;DHT22;6303;51.504;6.300;2023-08-20T09:01:47;31.20;72.40
12477;DHT22;6303;51.504;6.300;2023-08-20T09:04:14;31.20;72.30
12477;DHT22;6303;51.504;6.300;2023-08-20T09:06:45;31.20;72.20
12477;DHT22;6303;51.504;6.300;2023-08-20T09:09:13;31.20;72.10
12477;DHT22;6303;51.504;6.300;2023-08-20T09:11:40;31.30;72.20
12477;DHT22;6303;51.504;6.300;2023-08-20T09:14:20;31.30;72.20
12477;DHT22;6303;51.504;6.300;2023-08-20T09:16:54;31.30;72.00
12477;DHT22;6303;51.504;6.300;2023-08-20T09:19:21;31.40;71.90
12477;DHT22;6303;51.504;6.300;2023-08-20T09:21:48;31.40;71.40
12477;DHT22;6303;51.504;6.300;2023-08-20T09:24:26;31.40;71.20
12477;DHT22;6303;51.504;6.300;2023-08-20T09:26:57;31.50;70.70
12477;DHT22;6303;51.504;6.300;2023-08-20T09:29:26;31.50;70.40
12477;DHT22;6303;51.504;6.300;2023-08-20T09:32:00;31.50;70.10
12477;DHT22;6303;51.504;6.300;2023-08-20T09:34:36;31.60;70.10
12477;DHT22;6303;51.504;6.300;2023-08-20T09:37:08;31.60;69.90
12477;DHT22;6303;51.504;6.300;2023-08-20T09:39:35;31.60;69.80
12477;DHT22;6303;51.504;6.300;2023-08-20T09:42:04;31.60;69.60
12477;DHT22;6303;51.504;6.300;2023-08-20T09:44:35;31.60;69.40
12477;DHT22;6303;51.504;6.300;2023-08-20T09:47:05;31.60;69.20
12477;DHT22;6303;51.504;6.300;2023-08-20T09:49:36;31.60;69.40
12477;DHT22;6303;51.504;6.300;2023-08-20T09:52:05;31.60;69.30
12477;DHT22;6303;51.504;6.300;2023-08-20T09:54:50;31.60;69.20
12477;DHT22;6303;51.504;6.300;2023-08-20T09:57:26;31.60;69.10
12477;DHT22;6303;51.504;6.300;2023-08-20T09:59:58;31.60;68.80
12477;DHT22;6303;51.504;6.300;2023-08-20T10:02:25;31.60;68.80
12477;DHT22;6303;51.504;6.300;2023-08-20T10:04:53;31.60;69.20
12477;DHT22;6303;51.504;6.300;2023-08-20T10:07:20;31.60;69.00
12477;DHT22;6303;51.504;6.300;2023-08-20T10:09:50;31.70;69.10
12477;DHT22;6303;51.504;6.300;2023-08-20T10:12:18;31.80;69.20
12477;DHT22;6303;51.504;6.300;2023-08-20T10:14:45;31.80;69.70
12477;DHT22;6303;51.504;6.300;2023-08-20T10:17:14;31.80;68.60
12477;DHT22;6303;51.504;6.300;2023-08-20T10:19:41;31.80;68.50
12477;DHT22;6303;51.504;6.300;2023-08-20T10:22:09;31.80;68.20
12477;DHT22;6303;51.504;6.300;2023-08-20T10:24:52;31.90;68.20
12477;DHT22;6303;51.504;6.300;2023-08-20T10:27:26;31.90;68.10
12477;DHT22;6303;51.504;6.300;2023-08-20T10:29:53;31.90;68.00
12477;DHT22;6303;51.504;6.300;2023-08-20T10:32:46;31.90;68.00
12477;DHT22;6303;51.504;6.300;2023-08-20T10:35:16;31.90;67.90
12477;DHT22;6303;51.504;6.300;2023-08-20T10:38:03;31.80;67.70
12477;DHT22;6303;51.504;6.300;2023-08-20T10:40:53;31.90;67.80
12477;DHT22;6303;51.504;6.300;2023-08-20T10:43:30;31.80;67.80
12477;DHT22;6303;51.504;6.300;2023-08-20T10:46:08;31.90;67.90
12477;DHT22;6303;51.504;6.300;2023-08-20T10:48:38;31.90;67.70
12477;DHT22;6303;51.504;6.300;2023-08-20T10:51:08;31.90;67.50
12477;DHT22;6303;51.504;6.300;2023-08-20T10:53:35;32.00;67.40
12477;DHT22;6303;51.504;6.300;2023-08-20T10:56:13;32.00;67.20
12477;DHT22;6303;51.504;6.300;2023-08-20T10:58:42;32.00;66.90
12477;DHT22;6303;51.504;6.300;2023-08-20T11:01:18;32.00;66.10
12477;DHT22;6303;51.504;6.300;2023-08-20T11:03:48;32.10;65.90
12477;DHT22;6303;51.504;6.300;2023-08-20T11:06:16;32.10;65.80
12477;DHT22;6303;51.504;6.300;2023-08-20T11:08:44;32.10;66.00
12477;DHT22;6303;51.504;6.300;2023-08-20T11:11:11;32.10;65.90
12477;DHT22;6303;51.504;6.300;2023-08-20T11:13:39;32.20;66.20
12477;DHT22;6303;51.504;6.300;2023-08-20T11:16:06;32.20;65.70
12477;DHT22;6303;51.504;6.300;2023-08-20T11:18:34;32.20;65.30
12477;DHT22;6303;51.504;6.300;2023-08-20T11:21:03;32.20;65.00
12477;DHT22;6303;51.504;6.300;2023-08-20T11:23:31;32.20;64.70
12477;DHT22;6303;51.504;6.300;2023-08-20T11:25:58;32.20;64.20
12477;DHT22;6303;51.504;6.300;2023-08-20T11:28:26;32.10;63.10
12477;DHT22;6303;51.504;6.300;2023-08-20T11:30:54;32.10;62.40
12477;DHT22;6303;51.504;6.300;2023-08-20T11:33:22;32.10;62.10
12477;DHT22;6303;51.504;6.300;2023-08-20T11:35:50;32.10;62.10
12477;DHT22;6303;51.504;6.300;2023-08-20T11:38:20;32.00;61.90
12477;DHT22;6303;51.504;6.300;2023-08-20T11:40:48;32.00;61.80
12477;DHT22;6303;51.504;6.300;2023-08-20T11:43:15;32.00;62.80
12477;DHT22;6303;51.504;6.300;2023-08-20T11:45:47;31.90;61.90
12477;DHT22;6303;51.504;6.300;2023-08-20T11:48:15;31.90;61.70
12477;DHT22;6303;51.504;6.300;2023-08-20T11:50:43;32.00;61.70
12477;DHT22;6303;51.504;6.300;2023-08-20T11:53:11;32.00;62.30
12477;DHT22;6303;51.504;6.300;2023-08-20T11:55:40;31.80;63.30
12477;DHT22;6303;51.504;6.300;2023-08-20T11:58:12;31.60;64.70
12477;DHT22;6303;51.504;6.300;2023-08-20T12:00:40;31.40;65.60
12477;DHT22;6303;51.504;6.300;2023-08-20T12:03:08;31.30;66.30
12477;DHT22;6303;51.504;6.300;2023-08-20T12:05:36;31.20;66.90
12477;DHT22;6303;51.504;6.300;2023-08-20T12:08:04;31.00;67.20
12477;DHT22;6303;51.504;6.300;2023-08-20T12:10:32;31.00;66.80
12477;DHT22;6303;51.504;6.300;2023-08-20T12:13:02;31.00;67.70
12477;DHT22;6303;51.504;6.300;2023-08-20T12:15:29;30.90;66.70
12477;DHT22;6303;51.504;6.300;2023-08-20T12:18:01;31.00;65.70
12477;DHT22;6303;51.504;6.300;2023-08-20T12:20:31;31.30;63.10
12477;DHT22;6303;51.504;6.300;2023-08-20T12:22:59;31.40;62.40
12477;DHT22;6303;51.504;6.300;2023-08-20T12:25:29;31.50;62.40
12477;DHT22;6303;51.504;6.300;2023-08-20T12:27:56;31.50;62.60
12477;DHT22;6303;51.504;6.300;2023-08-20T12:30:25;31.50;62.70
12477;DHT22;6303;51.504;6.300;2023-08-20T12:32:52;31.40;62.30
12477;DHT22;6303;51.504;6.300;2023-08-20T12:35:20;31.30;61.60
12477;DHT22;6303;51.504;6.300;2023-08-20T12:37:47;31.30;61.70
12477;DHT22;6303;51.504;6.300;2023-08-20T12:40:14;31.30;61.80
12477;DHT22;6303;51.504;6.300;2023-08-20T12:42:41;31.20;61.50
12477;DHT22;6303;51.504;6.300;2023-08-20T12:45:09;31.20;61.60
12477;DHT22;6303;51.504;6.300;2023-08-20T12:47:40;31.20;63.80
12477;DHT22;6303;51.504;6.300;2023-08-20T12:50:07;31.70;65.90
12477;DHT22;6303;51.504;6.300;2023-08-20T12:52:35;31.30;66.50
12477;DHT22;6303;51.504;6.300;2023-08-20T12:55:02;31.30;66.70
12477;DHT22;6303;51.504;6.300;2023-08-20T12:57:30;31.20;66.60
12477;DHT22;6303;51.504;6.300;2023-08-20T12:59:57;31.30;65.80
12477;DHT22;6303;51.504;6.300;2023-08-20T13:02:25;31.30;64.50
12477;DHT22;6303;51.504;6.300;2023-08-20T13:04:54;31.30;63.50
12477;DHT22;6303;51.504;6.300;2023-08-20T13:07:21;31.30;63.20
12477;DHT22;6303;51.504;6.300;2023-08-20T13:09:49;31.30;63.00
12477;DHT22;6303;51.504;6.300;2023-08-20T13:12:18;31.20;62.50
12477;DHT22;6303;51.504;6.300;2023-08-20T13:14:48;31.20;62.00
12477;DHT22;6303;51.504;6.300;2023-08-20T13:17:16;31.20;62.30
12477;DHT22;6303;51.504;6.300;2023-08-20T13:19:43;31.10;62.60
12477;DHT22;6303;51.504;6.300;2023-08-20T13:22:12;31.10;62.00
12477;DHT22;6303;51.504;6.300;2023-08-20T13:24:40;31.10;61.60
12477;DHT22;6303;51.504;6.300;2023-08-20T13:27:07;31.10;61.90
12477;DHT22;6303;51.504;6.300;2023-08-20T13:29:34;31.00;61.40
12477;DHT22;6303;51.504;6.300;2023-08-20T13:32:01;31.00;61.40
12477;DHT22;6303;51.504;6.300;2023-08-20T13:34:29;31.00;62.20
12477;DHT22;6303;51.504;6.300;2023-08-20T13:36:57;31.00;62.20
12477;DHT22;6303;51.504;6.300;2023-08-20T13:39:27;31.00;62.00
12477;DHT22;6303;51.504;6.300;2023-08-20T13:41:57;31.00;60.90
12477;DHT22;6303;51.504;6.300;2023-08-20T13:44:26;30.70;59.30
12477;DHT22;6303;51.504;6.300;2023-08-20T13:46:55;30.90;59.20
12477;DHT22;6303;51.504;6.300;2023-08-20T13:49:22;30.90;60.00
12477;DHT22;6303;51.504;6.300;2023-08-20T13:51:51;30.90;61.20
12477;DHT22;6303;51.504;6.300;2023-08-20T13:54:20;30.90;60.50
12477;DHT22;6303;51.504;6.300;2023-08-20T13:56:49;30.90;60.20
12477;DHT22;6303;51.504;6.300;2023-08-20T13:59:18;30.90;61.00
12477;DHT22;6303;51.504;6.300;2023-08-20T14:01:47;30.90;62.10
12477;DHT22;6303;51.504;6.300;2023-08-20T14:04:19;30.90;62.20
12477;DHT22;6303;51.504;6.300;2023-08-20T14:06:47;30.90;62.60
12477;DHT22;6303;51.504;6.300;2023-08-20T14:09:16;30.90;63.10
12477;DHT22;6303;51.504;6.300;2023-08-20T14:11:45;30.90;62.90
12477;DHT22;6303;51.504;6.300;2023-08-20T14:14:15;30.90;62.90
12477;DHT22;6303;51.504;6.300;2023-08-20T14:16:42;30.90;63.40
12477;DHT22;6303;51.504;6.300;2023-08-20T14:19:09;30.90;63.40
12477;DHT22;6303;51.504;6.300;2023-08-20T14:21:37;30.90;63.50
12477;DHT22;6303;51.504;6.300;2023-08-20T14:24:04;30.90;63.10
12477;DHT22;6303;51.504;6.300;2023-08-20T14:26:31;30.90;62.40
12477;DHT22;6303;51.504;6.300;2023-08-20T14:28:59;30.90;60.70
12477;DHT22;6303;51.504;6.300;2023-08-20T14:31:27;30.90;59.80
12477;DHT22;6303;51.504;6.300;2023-08-20T14:33:54;30.80;59.80
12477;DHT22;6303;51.504;6.300;2023-08-20T14:36:22;30.90;60.00
12477;DHT22;6303;51.504;6.300;2023-08-20T14:38:49;30.90;59.60
12477;DHT22;6303;51.504;6.300;2023-08-20T14:41:16;30.80;59.40
12477;DHT22;6303;51.504;6.300;2023-08-20T14:43:43;30.80;59.90
12477;DHT22;6303;51.504;6.300;2023-08-20T14:46:11;30.80;60.40
12477;DHT22;6303;51.504;6.300;2023-08-20T14:48:42;30.80;60.70
12477;DHT22;6303;51.504;6.300;2023-08-20T14:51:09;30.80;61.60
12477;DHT22;6303;51.504;6.300;2023-08-20T14:53:36;31.50;62.30
12477;DHT22;6303;51.504;6.300;2023-08-20T14:56:03;30.80;62.70
12477;DHT22;6303;51.504;6.300;2023-08-20T14:58:31;30.80;62.50
12477;DHT22;6303;51.504;6.300;2023-08-20T15:00:59;30.80;62.10
12477;DHT22;6303;51.504;6.300;2023-08-20T15:03:26;30.80;62.60
12477;DHT22;6303;51.504;6.300;2023-08-20T15:05:54;30.80;62.50
12477;DHT22;6303;51.504;6.300;2023-08-20T15:08:21;30.80;62.70
12477;DHT22;6303;51.504;6.300;2023-08-20T15:10:56;30.80;62.60
12477;DHT22;6303;51.504;6.300;2023-08-20T15:13:23;30.80;62.20
12477;DHT22;6303;51.504;6.300;2023-08-20T15:15:51;30.80;62.20
12477;DHT22;6303;51.504;6.300;2023-08-20T15:18:19;30.80;62.80
12477;DHT22;6303;51.504;6.300;2023-08-20T15:20:54;30.70;62.20
12477;DHT22;6303;51.504;6.300;2023-08-20T15:23:22;30.70;62.50
12477;DHT22;6303;51.504;6.300;2023-08-20T15:25:51;30.70;62.80
12477;DHT22;6303;51.504;6.300;2023-08-20T15:28:19;30.80;62.70
12477;DHT22;6303;51.504;6.300;2023-08-20T15:30:46;30.80;61.40
12477;DHT22;6303;51.504;6.300;2023-08-20T15:33:13;30.80;60.10
12477;DHT22;6303;51.504;6.300;2023-08-20T15:35:40;30.80;59.60
12477;DHT22;6303;51.504;6.300;2023-08-20T15:38:09;30.80;59.60
12477;DHT22;6303;51.504;6.300;2023-08-20T15:40:37;30.80;58.60
12477;DHT22;6303;51.504;6.300;2023-08-20T15:43:05;30.50;59.10
12477;DHT22;6303;51.504;6.300;2023-08-20T15:45:33;30.80;59.70
12477;DHT22;6303;51.504;6.300;2023-08-20T15:48:01;30.80;59.40
12477;DHT22;6303;51.504;6.300;2023-08-20T15:50:29;30.80;59.20
12477;DHT22;6303;51.504;6.300;2023-08-20T15:52:56;30.80;59.30